sensor_id;sensor_type;location;lat;lon;timestamp;P1;durP1;ratioP1;P2;durP2;ratioP2
3718;SDS011;1875;52.492;6.860;2023-04-29T00:02:12;76.77;;;46.50;;
3718;SDS011;1875;52.492;6.860;2023-04-29T00:04:39;64.67;;;42.00;;
3718;SDS011;1875;52.492;6.860;2023-04-29T00:07:07;65.70;;;44.37;;
3718;SDS011;1875;52.492;6.860;2023-04-29T00:09:35;63.00;;;42.30;;
3718;SDS011;1875;52.492;6.860;2023-04-29T00:12:03;66.73;;;43.87;;
3718;SDS011;1875;52.492;6.860;2023-04-29T00:14:33;61.77;;;39.97;;
3718;SDS011;1875;52.492;6.860;2023-04-29T00:18:14;63.43;;;42.77;;
3718;SDS011;1875;52.492;6.860;2023-04-29T00:20:41;69.60;;;44.10;;
3718;SDS011;1875;52.492;6.860;2023-04-29T00:23:09;66.63;;;43.63;;
3718;SDS011;1875;52.492;6.860;2023-04-29T00:25:37;62.30;;;40.87;;
3718;SDS011;1875;52.492;6.860;2023-04-29T00:28:05;63.97;;;43.20;;
3718;SDS011;1875;52.492;6.860;2023-04-29T00:30:33;64.20;;;40.03;;
3718;SDS011;1875;52.492;6.860;2023-04-29T00:33:00;64.87;;;43.50;;
3718;SDS011;1875;52.492;6.860;2023-04-29T00:35:30;66.50;;;45.20;;
3718;SDS011;1875;52.492;6.860;2023-04-29T00:37:58;66.30;;;41.57;;
3718;SDS011;1875;52.492;6.860;2023-04-29T00:40:26;68.20;;;41.23;;
3718;SDS011;1875;52.492;6.860;2023-04-29T00:42:54;63.87;;;41.80;;
3718;SDS011;1875;52.492;6.860;2023-04-29T00:45:22;60.63;;;41.00;;
3718;SDS011;1875;52.492;6.860;2023-04-29T00:47:50;64.17;;;41.33;;
3718;SDS011;1875;52.492;6.860;2023-04-29T00:50:18;69.20;;;42.63;;
3718;SDS011;1875;52.492;6.860;2023-04-29T00:52:47;66.63;;;41.90;;
3718;SDS011;1875;52.492;6.860;2023-04-29T00:55:15;69.23;;;42.67;;
3718;SDS011;1875;52.492;6.860;2023-04-29T00:57:44;60.87;;;37.97;;
3718;SDS011;1875;52.492;6.860;2023-04-29T01:00:13;57.03;;;38.30;;
3718;SDS011;1875;52.492;6.860;2023-04-29T01:02:42;60.27;;;39.17;;
3718;SDS011;1875;52.492;6.860;2023-04-29T01:05:10;62.53;;;38.13;;
3718;SDS011;1875;52.492;6.860;2023-04-29T01:07:40;56.87;;;38.47;;
3718;SDS011;1875;52.492;6.860;2023-04-29T01:10:13;66.00;;;42.57;;
3718;SDS011;1875;52.492;6.860;2023-04-29T01:12:44;67.90;;;42.87;;
3718;SDS011;1875;52.492;6.860;2023-04-29T01:15:16;65.70;;;43.00;;
3718;SDS011;1875;52.492;6.860;2023-04-29T01:17:49;59.57;;;37.83;;
3718;SDS011;1875;52.492;6.860;2023-04-29T01:20:26;60.47;;;36.53;;
3718;SDS011;1875;52.492;6.860;2023-04-29T01:22:54;57.43;;;37.77;;
3718;SDS011;1875;52.492;6.860;2023-04-29T01:25:23;56.60;;;39.20;;
3718;SDS011;1875;52.492;6.860;2023-04-29T01:27:52;52.37;;;35.40;;
3718;SDS011;1875;52.492;6.860;2023-04-29T01:30:26;51.80;;;34.93;;
3718;SDS011;1875;52.492;6.860;2023-04-29T01:33:00;54.00;;;34.87;;
3718;SDS011;1875;52.492;6.860;2023-04-29T01:35:35;55.47;;;37.23;;
3718;SDS011;1875;52.492;6.860;2023-04-29T01:38:12;55.87;;;37.30;;
3718;SDS011;1875;52.492;6.860;2023-04-29T01:40:47;53.97;;;35.17;;
3718;SDS011;1875;52.492;6.860;2023-04-29T01:43:22;52.70;;;36.37;;
3718;SDS011;1875;52.492;6.860;2023-04-29T01:45:51;49.07;;;34.03;;
3718;SDS011;1875;52.492;6.860;2023-04-29T01:48:21;54.20;;;35.73;;
3718;SDS011;1875;52.492;6.860;2023-04-29T01:50:49;51.03;;;33.53;;
3718;SDS011;1875;52.492;6.860;2023-04-29T01:53:17;49.47;;;33.47;;
3718;SDS011;1875;52.492;6.860;2023-04-29T01:55:46;50.40;;;35.33;;
3718;SDS011;1875;52.492;6.860;2023-04-29T01:58:14;47.33;;;32.87;;
3718;SDS011;1875;52.492;6.860;2023-04-29T02:00:42;49.07;;;32.77;;
3718;SDS011;1875;52.492;6.860;2023-04-29T02:03:10;52.17;;;33.73;;
3718;SDS011;1875;52.492;6.860;2023-04-29T02:05:38;50.57;;;32.30;;
3718;SDS011;1875;52.492;6.860;2023-04-29T02:08:06;50.33;;;32.97;;
3718;SDS011;1875;52.492;6.860;2023-04-29T02:10:33;46.23;;;31.90;;
3718;SDS011;1875;52.492;6.860;2023-04-29T02:13:03;47.03;;;33.50;;
3718;SDS011;1875;52.492;6.860;2023-04-29T02:15:30;47.07;;;32.67;;
3718;SDS011;1875;52.492;6.860;2023-04-29T02:17:58;50.23;;;34.00;;
3718;SDS011;1875;52.492;6.860;2023-04-29T02:20:26;48.93;;;35.20;;
3718;SDS011;1875;52.492;6.860;2023-04-29T02:22:54;60.10;;;36.10;;
3718;SDS011;1875;52.492;6.860;2023-04-29T02:25:22;52.67;;;33.60;;
3718;SDS011;1875;52.492;6.860;2023-04-29T02:27:49;54.97;;;33.23;;
3718;SDS011;1875;52.492;6.860;2023-04-29T02:30:19;52.93;;;33.60;;
3718;SDS011;1875;52.492;6.860;2023-04-29T02:32:46;50.27;;;32.33;;
3718;SDS011;1875;52.492;6.860;2023-04-29T02:35:14;50.07;;;33.30;;
3718;SDS011;1875;52.492;6.860;2023-04-29T02:37:42;54.10;;;32.87;;
3718;SDS011;1875;52.492;6.860;2023-04-29T02:40:10;42.93;;;28.37;;
3718;SDS011;1875;52.492;6.860;2023-04-29T02:42:38;43.67;;;30.83;;
3718;SDS011;1875;52.492;6.860;2023-04-29T02:45:06;44.40;;;29.90;;
3718;SDS011;1875;52.492;6.860;2023-04-29T02:47:36;44.87;;;29.37;;
3718;SDS011;1875;52.492;6.860;2023-04-29T02:50:05;46.63;;;30.30;;
3718;SDS011;1875;52.492;6.860;2023-04-29T02:52:33;41.37;;;29.77;;
3718;SDS011;1875;52.492;6.860;2023-04-29T02:55:01;47.80;;;28.57;;
3718;SDS011;1875;52.492;6.860;2023-04-29T02:57:29;48.83;;;29.83;;
3718;SDS011;1875;52.492;6.860;2023-04-29T02:59:57;43.07;;;28.83;;
3718;SDS011;1875;52.492;6.860;2023-04-29T03:02:25;43.20;;;30.07;;
3718;SDS011;1875;52.492;6.860;2023-04-29T03:04:54;42.03;;;29.90;;
3718;SDS011;1875;52.492;6.860;2023-04-29T03:07:22;43.93;;;29.77;;
3718;SDS011;1875;52.492;6.860;2023-04-29T03:09:49;46.87;;;29.37;;
3718;SDS011;1875;52.492;6.860;2023-04-29T03:12:17;41.20;;;29.23;;
3718;SDS011;1875;52.492;6.860;2023-04-29T03:14:45;50.87;;;30.47;;
3718;SDS011;1875;52.492;6.860;2023-04-29T03:17:13;44.13;;;29.17;;
3718;SDS011;1875;52.492;6.860;2023-04-29T03:19:41;51.80;;;31.87;;
3718;SDS011;1875;52.492;6.860;2023-04-29T03:22:10;51.70;;;32.73;;
3718;SDS011;1875;52.492;6.860;2023-04-29T03:24:38;57.10;;;33.13;;
3718;SDS011;1875;52.492;6.860;2023-04-29T03:27:05;51.20;;;33.20;;
3718;SDS011;1875;52.492;6.860;2023-04-29T03:29:33;54.13;;;34.47;;
3718;SDS011;1875;52.492;6.860;2023-04-29T03:32:01;52.50;;;33.53;;
3718;SDS011;1875;52.492;6.860;2023-04-29T03:34:28;58.03;;;35.37;;
3718;SDS011;1875;52.492;6.860;2023-04-29T03:36:56;59.07;;;36.93;;
3718;SDS011;1875;52.492;6.860;2023-04-29T03:39:26;56.97;;;32.53;;
3718;SDS011;1875;52.492;6.860;2023-04-29T03:41:57;58.70;;;35.93;;
3718;SDS011;1875;52.492;6.860;2023-04-29T03:44:26;63.27;;;39.43;;
3718;SDS011;1875;52.492;6.860;2023-04-29T03:46:54;67.10;;;37.73;;
3718;SDS011;1875;52.492;6.860;2023-04-29T03:49:22;66.30;;;37.60;;
3718;SDS011;1875;52.492;6.860;2023-04-29T03:51:50;58.27;;;37.17;;
3718;SDS011;1875;52.492;6.860;2023-04-29T03:54:18;64.00;;;36.77;;
3718;SDS011;1875;52.492;6.860;2023-04-29T03:56:48;67.47;;;38.03;;
3718;SDS011;1875;52.492;6.860;2023-04-29T03:59:15;65.10;;;33.77;;
3718;SDS011;1875;52.492;6.860;2023-04-29T04:01:43;69.33;;;36.63;;
3718;SDS011;1875;52.492;6.860;2023-04-29T04:04:11;62.67;;;34.40;;
3718;SDS011;1875;52.492;6.860;2023-04-29T04:06:39;60.13;;;32.77;;
3718;SDS011;1875;52.492;6.860;2023-04-29T04:09:09;55.43;;;35.03;;
3718;SDS011;1875;52.492;6.860;2023-04-29T04:11:36;59.77;;;32.83;;
3718;SDS011;1875;52.492;6.860;2023-04-29T04:14:05;62.87;;;33.57;;
3718;SDS011;1875;52.492;6.860;2023-04-29T04:16:33;52.80;;;30.50;;
3718;SDS011;1875;52.492;6.860;2023-04-29T04:19:01;51.40;;;32.00;;
3718;SDS011;1875;52.492;6.860;2023-04-29T04:21:29;60.47;;;32.07;;
3718;SDS011;1875;52.492;6.860;2023-04-29T04:23:56;53.70;;;30.97;;
3718;SDS011;1875;52.492;6.860;2023-04-29T04:26:24;52.20;;;30.03;;
3718;SDS011;1875;52.492;6.860;2023-04-29T04:28:52;55.23;;;31.80;;
3718;SDS011;1875;52.492;6.860;2023-04-29T04:31:21;46.60;;;29.37;;
3718;SDS011;1875;52.492;6.860;2023-04-29T04:33:49;49.73;;;31.60;;
3718;SDS011;1875;52.492;6.860;2023-04-29T04:36:17;49.37;;;30.20;;
3718;SDS011;1875;52.492;6.860;2023-04-29T04:38:45;45.33;;;29.20;;
3718;SDS011;1875;52.492;6.860;2023-04-29T04:41:12;46.60;;;28.80;;
3718;SDS011;1875;52.492;6.860;2023-04-29T04:43:40;51.43;;;29.10;;
3718;SDS011;1875;52.492;6.860;2023-04-29T04:46:08;46.33;;;27.97;;
3718;SDS011;1875;52.492;6.860;2023-04-29T04:48:38;55.57;;;27.70;;
3718;SDS011;1875;52.492;6.860;2023-04-29T04:51:06;44.97;;;27.03;;
3718;SDS011;1875;52.492;6.860;2023-04-29T04:53:35;44.10;;;25.97;;
3718;SDS011;1875;52.492;6.860;2023-04-29T04:56:03;45.47;;;26.53;;
3718;SDS011;1875;52.492;6.860;2023-04-29T04:58:31;43.83;;;25.13;;
3718;SDS011;1875;52.492;6.860;2023-04-29T05:01:00;39.27;;;25.77;;
3718;SDS011;1875;52.492;6.860;2023-04-29T05:03:28;44.53;;;25.80;;
3718;SDS011;1875;52.492;6.860;2023-04-29T05:05:57;37.60;;;22.07;;
3718;SDS011;1875;52.492;6.860;2023-04-29T05:08:26;44.63;;;23.47;;
3718;SDS011;1875;52.492;6.860;2023-04-29T05:10:53;41.77;;;24.40;;
3718;SDS011;1875;52.492;6.860;2023-04-29T05:13:21;41.03;;;25.63;;
3718;SDS011;1875;52.492;6.860;2023-04-29T05:15:50;40.70;;;21.73;;
3718;SDS011;1875;52.492;6.860;2023-04-29T05:18:18;42.83;;;23.23;;
3718;SDS011;1875;52.492;6.860;2023-04-29T05:20:46;43.20;;;23.23;;
3718;SDS011;1875;52.492;6.860;2023-04-29T05:23:15;45.00;;;22.30;;
3718;SDS011;1875;52.492;6.860;2023-04-29T05:25:43;34.37;;;21.07;;
3718;SDS011;1875;52.492;6.860;2023-04-29T05:28:10;31.37;;;18.03;;
3718;SDS011;1875;52.492;6.860;2023-04-29T05:30:38;39.17;;;22.90;;
3718;SDS011;1875;52.492;6.860;2023-04-29T05:33:06;35.13;;;21.27;;
3718;SDS011;1875;52.492;6.860;2023-04-29T05:35:34;27.83;;;17.83;;
3718;SDS011;1875;52.492;6.860;2023-04-29T05:38:02;36.97;;;22.03;;
3718;SDS011;1875;52.492;6.860;2023-04-29T05:40:31;34.73;;;21.40;;
3718;SDS011;1875;52.492;6.860;2023-04-29T05:42:59;36.27;;;20.90;;
3718;SDS011;1875;52.492;6.860;2023-04-29T05:45:27;47.03;;;23.03;;
3718;SDS011;1875;52.492;6.860;2023-04-29T05:47:54;35.20;;;22.77;;
3718;SDS011;1875;52.492;6.860;2023-04-29T05:50:22;36.13;;;22.53;;
3718;SDS011;1875;52.492;6.860;2023-04-29T05:52:50;35.83;;;20.83;;
3718;SDS011;1875;52.492;6.860;2023-04-29T05:55:20;32.63;;;19.90;;
3718;SDS011;1875;52.492;6.860;2023-04-29T05:57:49;41.17;;;18.67;;
3718;SDS011;1875;52.492;6.860;2023-04-29T06:00:16;34.13;;;20.03;;
3718;SDS011;1875;52.492;6.860;2023-04-29T06:02:44;34.87;;;21.30;;
3718;SDS011;1875;52.492;6.860;2023-04-29T06:05:23;35.63;;;21.33;;
3718;SDS011;1875;52.492;6.860;2023-04-29T06:07:51;32.17;;;19.40;;
3718;SDS011;1875;52.492;6.860;2023-04-29T06:10:19;38.73;;;19.23;;
3718;SDS011;1875;52.492;6.860;2023-04-29T06:12:47;27.87;;;18.57;;
3718;SDS011;1875;52.492;6.860;2023-04-29T06:15:17;28.03;;;18.37;;
3718;SDS011;1875;52.492;6.860;2023-04-29T06:17:44;36.60;;;19.57;;
3718;SDS011;1875;52.492;6.860;2023-04-29T06:20:12;31.53;;;20.40;;
3718;SDS011;1875;52.492;6.860;2023-04-29T06:22:42;31.83;;;19.33;;
3718;SDS011;1875;52.492;6.860;2023-04-29T06:25:10;28.33;;;17.77;;
3718;SDS011;1875;52.492;6.860;2023-04-29T06:27:39;29.77;;;19.87;;
3718;SDS011;1875;52.492;6.860;2023-04-29T06:30:08;27.83;;;18.70;;
3718;SDS011;1875;52.492;6.860;2023-04-29T06:32:37;26.47;;;17.20;;
3718;SDS011;1875;52.492;6.860;2023-04-29T06:35:05;26.83;;;16.97;;
3718;SDS011;1875;52.492;6.860;2023-04-29T06:37:33;32.70;;;17.40;;
3718;SDS011;1875;52.492;6.860;2023-04-29T06:40:03;36.27;;;19.57;;
3718;SDS011;1875;52.492;6.860;2023-04-29T06:42:32;28.27;;;15.63;;
3718;SDS011;1875;52.492;6.860;2023-04-29T06:45:00;28.83;;;17.17;;
3718;SDS011;1875;52.492;6.860;2023-04-29T06:47:29;28.93;;;17.37;;
3718;SDS011;1875;52.492;6.860;2023-04-29T06:49:58;26.77;;;15.57;;
3718;SDS011;1875;52.492;6.860;2023-04-29T06:52:26;30.93;;;18.13;;
3718;SDS011;1875;52.492;6.860;2023-04-29T06:54:53;25.93;;;14.53;;
3718;SDS011;1875;52.492;6.860;2023-04-29T06:57:21;27.80;;;15.77;;
3718;SDS011;1875;52.492;6.860;2023-04-29T06:59:49;32.77;;;18.23;;
3718;SDS011;1875;52.492;6.860;2023-04-29T07:02:18;31.03;;;18.27;;
3718;SDS011;1875;52.492;6.860;2023-04-29T07:04:47;33.97;;;17.53;;
3718;SDS011;1875;52.492;6.860;2023-04-29T07:07:15;28.40;;;16.73;;
3718;SDS011;1875;52.492;6.860;2023-04-29T07:09:43;28.43;;;15.07;;
3718;SDS011;1875;52.492;6.860;2023-04-29T07:12:11;30.27;;;17.43;;
3718;SDS011;1875;52.492;6.860;2023-04-29T07:14:38;31.13;;;16.07;;
3718;SDS011;1875;52.492;6.860;2023-04-29T07:17:07;27.93;;;14.50;;
3718;SDS011;1875;52.492;6.860;2023-04-29T07:19:37;25.30;;;15.27;;
3718;SDS011;1875;52.492;6.860;2023-04-29T07:22:06;31.47;;;17.07;;
3718;SDS011;1875;52.492;6.860;2023-04-29T07:24:34;22.83;;;15.47;;
3718;SDS011;1875;52.492;6.860;2023-04-29T07:27:01;25.03;;;16.87;;
3718;SDS011;1875;52.492;6.860;2023-04-29T07:29:29;30.40;;;14.23;;
3718;SDS011;1875;52.492;6.860;2023-04-29T07:31:57;26.93;;;15.37;;
3718;SDS011;1875;52.492;6.860;2023-04-29T07:34:25;27.00;;;15.10;;
3718;SDS011;1875;52.492;6.860;2023-04-29T07:36:53;25.63;;;14.43;;
3718;SDS011;1875;52.492;6.860;2023-04-29T07:39:22;19.77;;;12.03;;
3718;SDS011;1875;52.492;6.860;2023-04-29T07:41:50;23.27;;;13.53;;
3718;SDS011;1875;52.492;6.860;2023-04-29T07:44:18;22.17;;;14.50;;
3718;SDS011;1875;52.492;6.860;2023-04-29T07:46:47;23.07;;;14.97;;
3718;SDS011;1875;52.492;6.860;2023-04-29T07:49:15;22.73;;;12.93;;
3718;SDS011;1875;52.492;6.860;2023-04-29T07:51:42;21.73;;;13.80;;
3718;SDS011;1875;52.492;6.860;2023-04-29T07:54:10;21.97;;;14.33;;
3718;SDS011;1875;52.492;6.860;2023-04-29T07:56:39;24.00;;;14.57;;
3718;SDS011;1875;52.492;6.860;2023-04-29T07:59:07;20.37;;;12.37;;
3718;SDS011;1875;52.492;6.860;2023-04-29T08:01:35;19.57;;;10.60;;
3718;SDS011;1875;52.492;6.860;2023-04-29T08:04:02;20.37;;;13.20;;
3718;SDS011;1875;52.492;6.860;2023-04-29T08:06:30;25.93;;;14.43;;
3718;SDS011;1875;52.492;6.860;2023-04-29T08:08:58;18.27;;;11.13;;
3718;SDS011;1875;52.492;6.860;2023-04-29T08:11:28;19.73;;;12.33;;
3718;SDS011;1875;52.492;6.860;2023-04-29T08:13:57;19.83;;;12.77;;
3718;SDS011;1875;52.492;6.860;2023-04-29T08:16:25;21.60;;;13.80;;
3718;SDS011;1875;52.492;6.860;2023-04-29T08:18:53;17.30;;;11.00;;
3718;SDS011;1875;52.492;6.860;2023-04-29T08:21:21;22.70;;;13.17;;
3718;SDS011;1875;52.492;6.860;2023-04-29T08:23:49;22.37;;;12.53;;
3718;SDS011;1875;52.492;6.860;2023-04-29T08:26:17;22.60;;;13.00;;
3718;SDS011;1875;52.492;6.860;2023-04-29T08:28:45;22.53;;;12.77;;
3718;SDS011;1875;52.492;6.860;2023-04-29T08:31:17;17.83;;;12.80;;
3718;SDS011;1875;52.492;6.860;2023-04-29T08:33:45;20.33;;;13.30;;
3718;SDS011;1875;52.492;6.860;2023-04-29T08:36:13;18.93;;;12.33;;
3718;SDS011;1875;52.492;6.860;2023-04-29T08:38:41;19.07;;;10.67;;
3718;SDS011;1875;52.492;6.860;2023-04-29T08:41:09;19.33;;;13.00;;
3718;SDS011;1875;52.492;6.860;2023-04-29T08:43:40;26.03;;;11.77;;
3718;SDS011;1875;52.492;6.860;2023-04-29T08:46:07;19.03;;;11.83;;
3718;SDS011;1875;52.492;6.860;2023-04-29T08:48:37;18.03;;;11.43;;
3718;SDS011;1875;52.492;6.860;2023-04-29T08:51:10;19.90;;;10.13;;
3718;SDS011;1875;52.492;6.860;2023-04-29T08:53:38;16.47;;;9.10;;
3718;SDS011;1875;52.492;6.860;2023-04-29T08:56:08;14.17;;;8.73;;
3718;SDS011;1875;52.492;6.860;2023-04-29T08:58:38;17.07;;;10.70;;
3718;SDS011;1875;52.492;6.860;2023-04-29T09:01:07;17.37;;;8.93;;
3718;SDS011;1875;52.492;6.860;2023-04-29T09:03:39;18.47;;;8.63;;
3718;SDS011;1875;52.492;6.860;2023-04-29T09:06:11;20.40;;;10.13;;
3718;SDS011;1875;52.492;6.860;2023-04-29T09:08:40;18.77;;;9.77;;
3718;SDS011;1875;52.492;6.860;2023-04-29T09:11:07;14.43;;;9.17;;
3718;SDS011;1875;52.492;6.860;2023-04-29T09:13:37;20.20;;;9.93;;
3718;SDS011;1875;52.492;6.860;2023-04-29T09:16:09;17.63;;;8.97;;
3718;SDS011;1875;52.492;6.860;2023-04-29T09:18:40;15.10;;;11.20;;
3718;SDS011;1875;52.492;6.860;2023-04-29T09:21:14;14.37;;;8.10;;
3718;SDS011;1875;52.492;6.860;2023-04-29T09:23:47;14.03;;;8.63;;
3718;SDS011;1875;52.492;6.860;2023-04-29T09:26:16;15.80;;;8.90;;
3718;SDS011;1875;52.492;6.860;2023-04-29T09:28:44;17.70;;;8.37;;
3718;SDS011;1875;52.492;6.860;2023-04-29T09:31:13;13.07;;;7.63;;
3718;SDS011;1875;52.492;6.860;2023-04-29T09:33:52;15.37;;;8.50;;
3718;SDS011;1875;52.492;6.860;2023-04-29T09:36:36;22.03;;;7.53;;
3718;SDS011;1875;52.492;6.860;2023-04-29T09:39:05;13.67;;;8.67;;
3718;SDS011;1875;52.492;6.860;2023-04-29T09:41:38;16.20;;;7.70;;
3718;SDS011;1875;52.492;6.860;2023-04-29T09:44:07;14.97;;;8.67;;
3718;SDS011;1875;52.492;6.860;2023-04-29T09:46:36;10.83;;;7.93;;
3718;SDS011;1875;52.492;6.860;2023-04-29T09:49:05;13.57;;;6.70;;
3718;SDS011;1875;52.492;6.860;2023-04-29T09:51:53;10.37;;;6.87;;
3718;SDS011;1875;52.492;6.860;2023-04-29T09:54:22;15.33;;;8.10;;
3718;SDS011;1875;52.492;6.860;2023-04-29T09:56:51;15.80;;;8.13;;
3718;SDS011;1875;52.492;6.860;2023-04-29T09:59:19;12.87;;;6.70;;
3718;SDS011;1875;52.492;6.860;2023-04-29T10:01:47;11.60;;;7.30;;
3718;SDS011;1875;52.492;6.860;2023-04-29T10:04:18;12.73;;;7.63;;
3718;SDS011;1875;52.492;6.860;2023-04-29T10:06:47;13.47;;;7.53;;
3718;SDS011;1875;52.492;6.860;2023-04-29T10:09:16;10.17;;;6.17;;
3718;SDS011;1875;52.492;6.860;2023-04-29T10:11:45;11.13;;;7.53;;
3718;SDS011;1875;52.492;6.860;2023-04-29T10:14:14;12.53;;;6.70;;
3718;SDS011;1875;52.492;6.860;2023-04-29T10:16:46;11.77;;;8.23;;
3718;SDS011;1875;52.492;6.860;2023-04-29T10:19:24;10.23;;;6.40;;
3718;SDS011;1875;52.492;6.860;2023-04-29T10:21:53;13.27;;;8.03;;
3718;SDS011;1875;52.492;6.860;2023-04-29T10:24:21;11.27;;;7.27;;
3718;SDS011;1875;52.492;6.860;2023-04-29T10:26:50;10.47;;;6.43;;
3718;SDS011;1875;52.492;6.860;2023-04-29T10:29:19;10.43;;;6.37;;
3718;SDS011;1875;52.492;6.860;2023-04-29T10:31:48;14.87;;;7.83;;
3718;SDS011;1875;52.492;6.860;2023-04-29T10:34:17;11.80;;;6.30;;
3718;SDS011;1875;52.492;6.860;2023-04-29T10:36:47;10.10;;;5.60;;
3718;SDS011;1875;52.492;6.860;2023-04-29T10:39:20;13.80;;;7.17;;
3718;SDS011;1875;52.492;6.860;2023-04-29T10:41:50;13.07;;;6.90;;
3718;SDS011;1875;52.492;6.860;2023-04-29T10:44:18;9.53;;;6.67;;
3718;SDS011;1875;52.492;6.860;2023-04-29T10:46:46;8.17;;;5.80;;
3718;SDS011;1875;52.492;6.860;2023-04-29T10:49:14;9.10;;;5.93;;
3718;SDS011;1875;52.492;6.860;2023-04-29T10:51:42;8.80;;;6.47;;
3718;SDS011;1875;52.492;6.860;2023-04-29T10:54:13;18.77;;;6.77;;
3718;SDS011;1875;52.492;6.860;2023-04-29T10:56:42;10.63;;;6.57;;
3718;SDS011;1875;52.492;6.860;2023-04-29T10:59:12;9.77;;;5.93;;
3718;SDS011;1875;52.492;6.860;2023-04-29T11:01:41;9.53;;;5.93;;
3718;SDS011;1875;52.492;6.860;2023-04-29T11:04:10;9.50;;;6.07;;
3718;SDS011;1875;52.492;6.860;2023-04-29T11:06:39;5.43;;;4.00;;
3718;SDS011;1875;52.492;6.860;2023-04-29T11:09:09;7.20;;;3.67;;
3718;SDS011;1875;52.492;6.860;2023-04-29T11:11:41;7.70;;;5.20;;
3718;SDS011;1875;52.492;6.860;2023-04-29T11:14:11;7.87;;;5.10;;
3718;SDS011;1875;52.492;6.860;2023-04-29T11:16:45;6.50;;;4.23;;
3718;SDS011;1875;52.492;6.860;2023-04-29T11:19:15;7.40;;;4.60;;
3718;SDS011;1875;52.492;6.860;2023-04-29T11:21:43;9.97;;;6.40;;
3718;SDS011;1875;52.492;6.860;2023-04-29T11:24:12;10.90;;;6.50;;
3718;SDS011;1875;52.492;6.860;2023-04-29T11:26:43;12.80;;;6.93;;
3718;SDS011;1875;52.492;6.860;2023-04-29T11:29:11;10.93;;;7.17;;
3718;SDS011;1875;52.492;6.860;2023-04-29T11:31:39;9.10;;;6.37;;
3718;SDS011;1875;52.492;6.860;2023-04-29T11:34:07;11.37;;;6.23;;
3718;SDS011;1875;52.492;6.860;2023-04-29T11:36:35;10.37;;;6.40;;
3718;SDS011;1875;52.492;6.860;2023-04-29T11:39:02;15.97;;;6.40;;
3718;SDS011;1875;52.492;6.860;2023-04-29T11:41:30;7.77;;;5.40;;
3718;SDS011;1875;52.492;6.860;2023-04-29T11:44:00;9.00;;;5.30;;
3718;SDS011;1875;52.492;6.860;2023-04-29T11:46:30;4.90;;;3.70;;
3718;SDS011;1875;52.492;6.860;2023-04-29T11:48:58;7.80;;;5.60;;
3718;SDS011;1875;52.492;6.860;2023-04-29T11:51:26;7.80;;;5.37;;
3718;SDS011;1875;52.492;6.860;2023-04-29T11:53:55;7.63;;;5.00;;
3718;SDS011;1875;52.492;6.860;2023-04-29T11:56:24;9.20;;;5.83;;
3718;SDS011;1875;52.492;6.860;2023-04-29T11:58:54;9.37;;;5.90;;
3718;SDS011;1875;52.492;6.860;2023-04-29T12:01:25;7.63;;;5.20;;
3718;SDS011;1875;52.492;6.860;2023-04-29T12:03:56;9.53;;;5.10;;
3718;SDS011;1875;52.492;6.860;2023-04-29T12:06:26;8.67;;;5.33;;
3718;SDS011;1875;52.492;6.860;2023-04-29T12:08:57;12.87;;;5.47;;
3718;SDS011;1875;52.492;6.860;2023-04-29T12:11:25;8.90;;;6.00;;
3718;SDS011;1875;52.492;6.860;2023-04-29T12:13:54;7.77;;;5.83;;
3718;SDS011;1875;52.492;6.860;2023-04-29T12:16:22;10.97;;;5.87;;
3718;SDS011;1875;52.492;6.860;2023-04-29T12:18:52;11.80;;;5.93;;
3718;SDS011;1875;52.492;6.860;2023-04-29T12:21:21;7.47;;;4.90;;
3718;SDS011;1875;52.492;6.860;2023-04-29T12:23:49;6.70;;;4.73;;
3718;SDS011;1875;52.492;6.860;2023-04-29T12:26:17;8.77;;;5.80;;
3718;SDS011;1875;52.492;6.860;2023-04-29T12:28:47;9.47;;;5.70;;
3718;SDS011;1875;52.492;6.860;2023-04-29T12:31:15;9.50;;;4.90;;
3718;SDS011;1875;52.492;6.860;2023-04-29T12:33:43;6.30;;;5.00;;
3718;SDS011;1875;52.492;6.860;2023-04-29T12:36:16;8.20;;;5.40;;
3718;SDS011;1875;52.492;6.860;2023-04-29T12:38:45;9.03;;;4.97;;
3718;SDS011;1875;52.492;6.860;2023-04-29T12:41:13;9.40;;;4.83;;
3718;SDS011;1875;52.492;6.860;2023-04-29T12:43:42;8.60;;;5.20;;
3718;SDS011;1875;52.492;6.860;2023-04-29T12:46:10;8.83;;;4.27;;
3718;SDS011;1875;52.492;6.860;2023-04-29T12:48:39;6.93;;;3.60;;
3718;SDS011;1875;52.492;6.860;2023-04-29T12:51:09;5.50;;;3.47;;
3718;SDS011;1875;52.492;6.860;2023-04-29T12:53:38;7.77;;;3.77;;
3718;SDS011;1875;52.492;6.860;2023-04-29T12:56:06;5.07;;;3.30;;
3718;SDS011;1875;52.492;6.860;2023-04-29T12:58:34;9.10;;;4.50;;
3718;SDS011;1875;52.492;6.860;2023-04-29T13:01:02;10.17;;;4.70;;
3718;SDS011;1875;52.492;6.860;2023-04-29T13:03:30;9.10;;;4.87;;
3718;SDS011;1875;52.492;6.860;2023-04-29T13:05:58;8.57;;;5.57;;
3718;SDS011;1875;52.492;6.860;2023-04-29T13:08:26;7.10;;;4.30;;
3718;SDS011;1875;52.492;6.860;2023-04-29T13:10:55;8.30;;;4.93;;
3718;SDS011;1875;52.492;6.860;2023-04-29T13:13:23;6.83;;;4.87;;
3718;SDS011;1875;52.492;6.860;2023-04-29T13:15:52;7.73;;;4.57;;
3718;SDS011;1875;52.492;6.860;2023-04-29T13:18:20;6.00;;;4.13;;
3718;SDS011;1875;52.492;6.860;2023-04-29T13:20:48;7.20;;;3.87;;
3718;SDS011;1875;52.492;6.860;2023-04-29T13:23:18;7.93;;;3.90;;
3718;SDS011;1875;52.492;6.860;2023-04-29T13:25:46;5.47;;;2.53;;
3718;SDS011;1875;52.492;6.860;2023-04-29T13:28:18;6.33;;;4.03;;
3718;SDS011;1875;52.492;6.860;2023-04-29T13:30:47;7.73;;;4.53;;
3718;SDS011;1875;52.492;6.860;2023-04-29T13:33:15;9.50;;;4.30;;
3718;SDS011;1875;52.492;6.860;2023-04-29T13:35:44;7.23;;;4.23;;
3718;SDS011;1875;52.492;6.860;2023-04-29T13:38:12;10.37;;;4.40;;
3718;SDS011;1875;52.492;6.860;2023-04-29T13:40:40;11.90;;;3.80;;
3718;SDS011;1875;52.492;6.860;2023-04-29T13:43:12;9.60;;;3.80;;
3718;SDS011;1875;52.492;6.860;2023-04-29T13:45:55;6.67;;;3.70;;
3718;SDS011;1875;52.492;6.860;2023-04-29T13:48:23;7.63;;;4.33;;
3718;SDS011;1875;52.492;6.860;2023-04-29T13:50:57;6.53;;;3.87;;
3718;SDS011;1875;52.492;6.860;2023-04-29T13:53:28;4.33;;;3.67;;
3718;SDS011;1875;52.492;6.860;2023-04-29T13:55:58;8.97;;;4.40;;
3718;SDS011;1875;52.492;6.860;2023-04-29T13:58:46;6.77;;;3.93;;
3718;SDS011;1875;52.492;6.860;2023-04-29T14:01:19;6.93;;;3.93;;
3718;SDS011;1875;52.492;6.860;2023-04-29T14:03:50;6.10;;;3.30;;
3718;SDS011;1875;52.492;6.860;2023-04-29T14:06:18;10.97;;;3.80;;
3718;SDS011;1875;52.492;6.860;2023-04-29T14:08:46;5.23;;;3.83;;
3718;SDS011;1875;52.492;6.860;2023-04-29T14:11:14;5.83;;;3.37;;
3718;SDS011;1875;52.492;6.860;2023-04-29T14:13:42;7.80;;;3.57;;
3718;SDS011;1875;52.492;6.860;2023-04-29T14:16:10;5.50;;;3.80;;
3718;SDS011;1875;52.492;6.860;2023-04-29T14:18:39;8.60;;;4.03;;
3718;SDS011;1875;52.492;6.860;2023-04-29T14:21:07;7.03;;;3.30;;
3718;SDS011;1875;52.492;6.860;2023-04-29T14:23:36;8.23;;;3.47;;
3718;SDS011;1875;52.492;6.860;2023-04-29T14:26:04;12.50;;;3.37;;
3718;SDS011;1875;52.492;6.860;2023-04-29T14:28:51;4.73;;;3.53;;
3718;SDS011;1875;52.492;6.860;2023-04-29T14:31:23;8.83;;;3.77;;
3718;SDS011;1875;52.492;6.860;2023-04-29T14:33:52;6.17;;;3.33;;
3718;SDS011;1875;52.492;6.860;2023-04-29T14:36:20;7.37;;;3.37;;
3718;SDS011;1875;52.492;6.860;2023-04-29T14:38:47;9.77;;;3.60;;
3718;SDS011;1875;52.492;6.860;2023-04-29T14:41:16;6.40;;;3.27;;
3718;SDS011;1875;52.492;6.860;2023-04-29T14:43:43;5.13;;;3.43;;
3718;SDS011;1875;52.492;6.860;2023-04-29T14:46:11;4.83;;;3.67;;
3718;SDS011;1875;52.492;6.860;2023-04-29T14:48:39;5.57;;;3.33;;
3718;SDS011;1875;52.492;6.860;2023-04-29T14:51:09;5.73;;;2.90;;
3718;SDS011;1875;52.492;6.860;2023-04-29T14:53:37;6.30;;;3.70;;
3718;SDS011;1875;52.492;6.860;2023-04-29T14:56:05;7.30;;;3.50;;
3718;SDS011;1875;52.492;6.860;2023-04-29T14:58:33;8.20;;;3.90;;
3718;SDS011;1875;52.492;6.860;2023-04-29T15:01:00;5.90;;;3.07;;
3718;SDS011;1875;52.492;6.860;2023-04-29T15:03:28;4.07;;;3.10;;
3718;SDS011;1875;52.492;6.860;2023-04-29T15:05:57;8.07;;;3.13;;
3718;SDS011;1875;52.492;6.860;2023-04-29T15:08:26;5.60;;;3.43;;
3718;SDS011;1875;52.492;6.860;2023-04-29T15:10:54;6.40;;;3.77;;